Time;durP1;ratioP1;P1;durP2;ratioP2;P2;SDS_P1;SDS_P2;PMS_P1;PMS_P2;Temp;Humidity;BMP_temperature;BMP_pressure;BME280_temperature;BME280_humidity;BME280_pressure;Samples;Min_cycle;Max_cycle;Signal;HPM_P1;HPM_P2
2023/12/08 00:01:24;;;;;;;34.90;33.00;;;;;;;;;;5027260;28;20087;-62
2023/12/08 00:03:49;;;;;;;33.47;31.67;;;;;;;;;;5025923;28;20052;-62
2023/12/08 00:06:14;;;;;;;35.55;33.35;;;;;;;;;;5025054;28;20056;-62
2023/12/08 00:08:40;;;;;;;33.10;31.30;;;;;;;;;;5023521;28;20048;-63
2023/12/08 00:11:06;;;;;;;33.65;31.65;;;;;;;;;;5026051;28;20037;-61
2023/12/08 00:13:31;;;;;;;35.03;33.03;;;;;;;;;;5025236;28;20077;-62
2023/12/08 00:15:57;;;;;;;33.05;31.25;;;;;;;;;;5022399;28;20063;-63
2023/12/08 00:18:22;;;;;;;33.33;31.33;;;;;;;;;;5023277;28;20095;-62
2023/12/08 00:20:48;;;;;;;33.97;32.08;;;;;;;;;;5024497;28;20363;-62
2023/12/08 00:23:14;;;;;;;33.83;31.95;;;;;;;;;;5025607;28;20055;-62
2023/12/08 00:25:40;;;;;;;35.13;32.97;;;;;;;;;;5024269;28;20164;-58
2023/12/08 00:28:05;;;;;;;33.70;31.73;;;;;;;;;;5022897;28;20085;-58
2023/12/08 00:30:31;;;;;;;34.90;32.83;;;;;;;;;;5021781;28;20111;-58
2023/12/08 00:32:56;;;;;;;32.95;31.05;;;;;;;;;;5022529;28;20266;-58
2023/12/08 00:35:24;;;;;;;33.95;32.05;;;;;;;;;;5025687;28;20473;-58
2023/12/08 00:37:49;;;;;;;34.35;32.35;;;;;;;;;;5020699;28;20670;-58
2023/12/08 00:40:17;;;;;;;33.95;32.05;;;;;;;;;;5026250;28;20128;-58
2023/12/08 00:42:42;;;;;;;32.55;30.65;;;;;;;;;;5021500;28;20033;-58
2023/12/08 00:45:08;;;;;;;32.40;30.67;;;;;;;;;;5026129;28;20696;-58
2023/12/08 00:47:34;;;;;;;34.25;32.35;;;;;;;;;;5023626;28;20162;-58
2023/12/08 00:49:59;;;;;;;33.00;31.05;;;;;;;;;;5028418;28;20029;-58
2023/12/08 00:52:25;;;;;;;32.97;31.02;;;;;;;;;;5021846;28;20060;-58
2023/12/08 00:54:50;;;;;;;33.70;31.90;;;;;;;;;;5024750;28;20120;-58
2023/12/08 00:57:15;;;;;;;30.20;28.50;;;;;;;;;;5025618;28;20076;-58
2023/12/08 00:59:41;;;;;;;32.42;30.63;;;;;;;;;;5028265;28;20485;-58
2023/12/08 01:02:07;;;;;;;34.53;32.63;;;;;;;;;;5024860;28;20539;-58
2023/12/08 01:04:32;;;;;;;32.38;30.55;;;;;;;;;;5019995;28;20636;-59
2023/12/08 01:06:58;;;;;;;30.65;28.80;;;;;;;;;;5024962;28;20038;-58
2023/12/08 01:09:23;;;;;;;29.55;27.95;;;;;;;;;;5024971;28;20041;-58
2023/12/08 01:11:48;;;;;;;32.38;30.58;;;;;;;;;;5025387;28;20087;-59
2023/12/08 01:14:14;;;;;;;32.15;30.35;;;;;;;;;;5022595;28;20108;-58
2023/12/08 01:16:43;;;;;;;31.77;29.83;;;;;;;;;;5022168;28;20613;-59
2023/12/08 01:19:10;;;;;;;31.55;29.77;;;;;;;;;;5024093;28;20065;-58
2023/12/08 01:21:36;;;;;;;32.80;30.88;;;;;;;;;;5024138;28;20029;-58
2023/12/08 01:24:01;;;;;;;32.47;30.52;;;;;;;;;;5021327;28;20044;-58
2023/12/08 01:26:27;;;;;;;29.85;28.15;;;;;;;;;;5023296;28;20425;-58
2023/12/08 01:28:52;;;;;;;30.55;28.85;;;;;;;;;;5022610;28;20091;-58
2023/12/08 01:31:18;;;;;;;30.75;28.95;;;;;;;;;;5027435;28;20037;-58
2023/12/08 01:33:43;;;;;;;30.80;29.02;;;;;;;;;;5025153;28;20030;-58
2023/12/08 01:36:08;;;;;;;34.72;32.72;;;;;;;;;;5023211;28;20107;-59
2023/12/08 01:38:34;;;;;;;30.40;28.77;;;;;;;;;;5023459;28;21221;-58
2023/12/08 01:40:59;;;;;;;32.17;30.30;;;;;;;;;;5023614;28;20032;-58
2023/12/08 01:43:24;;;;;;;32.40;30.60;;;;;;;;;;5027184;28;20041;-58
2023/12/08 01:45:51;;;;;;;30.17;28.38;;;;;;;;;;5026120;28;20196;-59
2023/12/08 01:48:16;;;;;;;31.23;29.52;;;;;;;;;;5027608;28;20040;-58
2023/12/08 01:50:42;;;;;;;31.20;29.50;;;;;;;;;;5026653;28;20037;-58
2023/12/08 01:53:07;;;;;;;34.53;32.30;;;;;;;;;;5029416;28;20624;-58
2023/12/08 01:55:34;;;;;;;33.22;31.17;;;;;;;;;;5028060;28;20029;-58
2023/12/08 01:58:00;;;;;;;34.00;32.15;;;;;;;;;;5025212;28;20025;-59
2023/12/08 02:00:26;;;;;;;33.80;31.67;;;;;;;;;;5030251;28;20047;-59
2023/12/08 02:02:52;;;;;;;31.50;29.67;;;;;;;;;;5025712;28;20045;-60
2023/12/08 02:05:17;;;;;;;34.60;32.35;;;;;;;;;;5028157;28;20029;-59
2023/12/08 02:07:43;;;;;;;34.30;32.22;;;;;;;;;;5028843;28;20041;-59
2023/12/08 02:10:09;;;;;;;30.20;28.55;;;;;;;;;;5029263;28;20788;-59
2023/12/08 02:12:34;;;;;;;31.02;29.05;;;;;;;;;;5027403;28;20044;-59
2023/12/08 02:15:00;;;;;;;28.80;27.25;;;;;;;;;;5027059;28;20041;-59
2023/12/08 02:17:32;;;;;;;31.73;29.58;;;;;;;;;;5028513;28;20025;-59
2023/12/08 02:19:59;;;;;;;29.83;28.17;;;;;;;;;;5030187;28;20037;-59
2023/12/08 02:22:25;;;;;;;29.60;28.00;;;;;;;;;;5027739;28;20034;-59
2023/12/08 02:24:51;;;;;;;32.58;30.77;;;;;;;;;;5029222;28;20095;-59
2023/12/08 02:27:16;;;;;;;31.70;29.70;;;;;;;;;;5029340;28;20048;-59
2023/12/08 02:29:41;;;;;;;32.90;31.10;;;;;;;;;;5025893;28;20053;-59
2023/12/08 02:32:27;;;;;;;31.92;30.05;;;;;;;;;;5026279;28;20545;-59
2023/12/08 02:34:53;;;;;;;30.23;28.60;;;;;;;;;;5024798;28;20525;-59
2023/12/08 02:37:21;;;;;;;31.55;29.08;;;;;;;;;;5024996;28;20038;-59
2023/12/08 02:39:48;;;;;;;32.28;30.33;;;;;;;;;;5030338;28;20072;-59
2023/12/08 02:42:14;;;;;;;32.08;30.27;;;;;;;;;;5025489;28;20040;-59
2023/12/08 02:44:39;;;;;;;31.83;30.00;;;;;;;;;;5026507;28;20041;-59
2023/12/08 02:47:05;;;;;;;30.98;29.17;;;;;;;;;;5026017;28;20422;-59
2023/12/08 02:49:31;;;;;;;30.83;29.02;;;;;;;;;;5026845;28;20044;-59
2023/12/08 02:51:56;;;;;;;30.70;29.00;;;;;;;;;;5030217;28;20591;-59
2023/12/08 02:54:21;;;;;;;31.45;29.65;;;;;;;;;;5028676;28;20036;-59
2023/12/08 02:56:47;;;;;;;31.80;29.88;;;;;;;;;;5032325;28;20026;-59
2023/12/08 02:59:12;;;;;;;29.73;28.13;;;;;;;;;;5028242;28;20365;-59
2023/12/08 03:01:37;;;;;;;33.00;30.90;;;;;;;;;;5030642;28;20044;-59
2023/12/08 03:04:03;;;;;;;31.23;29.33;;;;;;;;;;5023352;28;20044;-59
2023/12/08 03:06:28;;;;;;;32.47;30.35;;;;;;;;;;5029681;28;20029;-59
2023/12/08 03:08:53;;;;;;;32.55;30.52;;;;;;;;;;5027679;28;20493;-59
2023/12/08 03:11:19;;;;;;;30.42;28.73;;;;;;;;;;5029361;28;20036;-59
2023/12/08 03:13:44;;;;;;;32.35;29.90;;;;;;;;;;5029404;28;20128;-59
2023/12/08 03:16:10;;;;;;;29.88;28.15;;;;;;;;;;5031299;28;20033;-59
2023/12/08 03:18:35;;;;;;;31.80;29.75;;;;;;;;;;5027371;28;20463;-58
2023/12/08 03:21:00;;;;;;;31.23;29.52;;;;;;;;;;5024397;28;20042;-58
2023/12/08 03:23:26;;;;;;;31.75;29.95;;;;;;;;;;5026782;28;20076;-59
2023/12/08 03:25:51;;;;;;;31.10;29.33;;;;;;;;;;5028581;28;20043;-59
2023/12/08 03:28:16;;;;;;;30.25;28.55;;;;;;;;;;5029271;28;20037;-58
2023/12/08 03:30:42;;;;;;;30.52;28.88;;;;;;;;;;5026776;28;20435;-59
2023/12/08 03:33:07;;;;;;;32.75;30.75;;;;;;;;;;5027135;28;20750;-58
2023/12/08 03:35:32;;;;;;;32.20;30.30;;;;;;;;;;5026644;28;20041;-58
2023/12/08 03:37:58;;;;;;;32.08;30.30;;;;;;;;;;5025911;28;20038;-59
2023/12/08 03:40:23;;;;;;;31.52;29.83;;;;;;;;;;5027257;28;20056;-59
2023/12/08 03:42:48;;;;;;;31.52;29.52;;;;;;;;;;5026400;28;20236;-59
2023/12/08 03:45:14;;;;;;;32.08;30.05;;;;;;;;;;5025487;28;20033;-58
2023/12/08 03:47:39;;;;;;;30.23;28.42;;;;;;;;;;5025988;28;20034;-59
2023/12/08 03:50:05;;;;;;;31.08;29.38;;;;;;;;;;5025625;28;20507;-58
2023/12/08 03:52:30;;;;;;;31.75;29.95;;;;;;;;;;5027770;28;20045;-58
2023/12/08 03:54:56;;;;;;;30.52;28.83;;;;;;;;;;5027791;28;20081;-58
2023/12/08 03:57:22;;;;;;;30.05;28.40;;;;;;;;;;5026760;28;20048;-59
2023/12/08 03:59:47;;;;;;;31.25;29.35;;;;;;;;;;5025676;28;20108;-59
2023/12/08 04:02:12;;;;;;;32.58;29.85;;;;;;;;;;5025585;28;20049;-58
2023/12/08 04:04:38;;;;;;;32.38;30.30;;;;;;;;;;5024513;28;20120;-59
2023/12/08 04:07:04;;;;;;;29.98;28.33;;;;;;;;;;5027775;28;20030;-58
2023/12/08 04:09:29;;;;;;;31.77;29.73;;;;;;;;;;5026995;28;20129;-58
2023/12/08 04:11:55;;;;;;;28.23;26.52;;;;;;;;;;5024885;28;20036;-59
2023/12/08 04:14:20;;;;;;;30.40;28.70;;;;;;;;;;5026944;28;20041;-58
2023/12/08 04:16:45;;;;;;;29.25;27.58;;;;;;;;;;5024976;28;20029;-58
2023/12/08 04:19:12;;;;;;;29.80;28.10;;;;;;;;;;5026481;28;20044;-58
2023/12/08 04:21:38;;;;;;;30.52;28.63;;;;;;;;;;5027501;28;20038;-58
2023/12/08 04:24:04;;;;;;;31.23;29.52;;;;;;;;;;5026952;28;20458;-58
2023/12/08 04:26:29;;;;;;;34.53;32.53;;;;;;;;;;5030864;28;20510;-58
2023/12/08 04:28:55;;;;;;;30.90;29.20;;;;;;;;;;5024304;28;20052;-59
2023/12/08 04:31:20;;;;;;;31.40;29.70;;;;;;;;;;5026124;28;20398;-58
2023/12/08 04:33:47;;;;;;;36.28;34.10;;;;;;;;;;5025458;28;20052;-58
2023/12/08 04:36:13;;;;;;;34.00;31.55;;;;;;;;;;5026803;28;20021;-58
2023/12/08 04:38:38;;;;;;;32.08;30.27;;;;;;;;;;5026593;28;20026;-59
2023/12/08 04:41:04;;;;;;;31.63;29.83;;;;;;;;;;5026515;28;20043;-59
2023/12/08 04:43:29;;;;;;;32.63;30.85;;;;;;;;;;5027004;28;20064;-59
2023/12/08 04:45:55;;;;;;;35.50;33.33;;;;;;;;;;5026192;28;20243;-59
2023/12/08 04:48:20;;;;;;;33.45;31.55;;;;;;;;;;5017965;28;20091;-59
2023/12/08 04:50:46;;;;;;;33.88;31.77;;;;;;;;;;5023742;28;20044;-59
2023/12/08 04:53:11;;;;;;;38.15;35.83;;;;;;;;;;5024342;28;20510;-58
2023/12/08 04:55:37;;;;;;;33.78;31.90;;;;;;;;;;5024850;28;20037;-59
2023/12/08 04:58:02;;;;;;;34.28;32.38;;;;;;;;;;5022707;28;20029;-59
2023/12/08 05:00:28;;;;;;;34.95;33.05;;;;;;;;;;5027641;28;20037;-58
2023/12/08 05:02:57;;;;;;;34.75;32.95;;;;;;;;;;5026863;28;20064;-58
2023/12/08 05:05:23;;;;;;;35.45;33.40;;;;;;;;;;5023752;28;20108;-59
2023/12/08 05:07:48;;;;;;;37.05;35.00;;;;;;;;;;5024588;28;20167;-59
2023/12/08 05:10:13;;;;;;;39.03;36.90;;;;;;;;;;5024636;28;20041;-59
2023/12/08 05:12:39;;;;;;;39.80;37.35;;;;;;;;;;5023745;28;20029;-60
2023/12/08 05:15:05;;;;;;;38.83;36.72;;;;;;;;;;5023616;28;20025;-60
2023/12/08 05:17:30;;;;;;;41.10;38.80;;;;;;;;;;5026521;28;21196;-60
2023/12/08 05:19:56;;;;;;;38.53;36.13;;;;;;;;;;5026331;28;20029;-60
2023/12/08 05:22:21;;;;;;;41.10;38.65;;;;;;;;;;5028897;28;20417;-60
2023/12/08 05:24:46;;;;;;;40.67;38.38;;;;;;;;;;5024367;28;20530;-59
2023/12/08 05:27:11;;;;;;;39.75;37.63;;;;;;;;;;5024210;28;20383;-59
2023/12/08 05:29:37;;;;;;;41.90;39.53;;;;;;;;;;5026047;28;20033;-60
2023/12/08 05:32:03;;;;;;;42.20;39.90;;;;;;;;;;5024881;28;20068;-60
2023/12/08 05:34:29;;;;;;;41.90;39.60;;;;;;;;;;5025045;28;20036;-60
2023/12/08 05:36:54;;;;;;;43.88;41.58;;;;;;;;;;5029232;28;20044;-60
2023/12/08 05:39:19;;;;;;;44.78;42.38;;;;;;;;;;5026421;28;20042;-60
2023/12/08 05:41:46;;;;;;;47.80;45.20;;;;;;;;;;5022249;28;20033;-60
2023/12/08 05:44:11;;;;;;;48.15;45.35;;;;;;;;;;5026660;28;20032;-60
2023/12/08 05:46:36;;;;;;;51.33;48.58;;;;;;;;;;5022999;28;20101;-60
2023/12/08 05:49:02;;;;;;;50.25;47.60;;;;;;;;;;5026680;28;20452;-60
2023/12/08 05:51:27;;;;;;;50.53;47.72;;;;;;;;;;5027308;28;20045;-60
2023/12/08 05:53:53;;;;;;;51.90;49.17;;;;;;;;;;5026292;28;20037;-60
2023/12/08 05:56:18;;;;;;;52.58;49.72;;;;;;;;;;5030860;28;20527;-60
2023/12/08 05:58:44;;;;;;;52.35;49.25;;;;;;;;;;5024541;28;20022;-59
2023/12/08 06:01:13;;;;;;;53.40;50.60;;;;;;;;;;5025683;28;20079;-59
2023/12/08 06:03:38;;;;;;;55.78;52.25;;;;;;;;;;5025127;28;20490;-59
2023/12/08 06:06:03;;;;;;;53.75;50.75;;;;;;;;;;5023180;28;20036;-59
2023/12/08 06:08:30;;;;;;;53.83;50.83;;;;;;;;;;5027376;28;20040;-59
2023/12/08 06:10:56;;;;;;;53.10;50.28;;;;;;;;;;5029959;28;20033;-59
2023/12/08 06:13:21;;;;;;;53.67;50.78;;;;;;;;;;5023695;28;20462;-59
2023/12/08 06:15:47;;;;;;;55.47;52.47;;;;;;;;;;5023281;28;20207;-59
2023/12/08 06:18:12;;;;;;;52.67;49.85;;;;;;;;;;5024828;28;20044;-59
2023/12/08 06:20:38;;;;;;;51.65;48.92;;;;;;;;;;5024773;28;20142;-59
2023/12/08 06:23:03;;;;;;;54.22;51.35;;;;;;;;;;5030931;28;20629;-59
2023/12/08 06:25:28;;;;;;;51.67;49.00;;;;;;;;;;5023412;28;20584;-60
2023/12/08 06:27:53;;;;;;;56.50;53.42;;;;;;;;;;5024724;28;20740;-60
2023/12/08 06:30:19;;;;;;;56.05;53.08;;;;;;;;;;5024081;28;20113;-59
2023/12/08 06:32:44;;;;;;;58.72;55.08;;;;;;;;;;5023839;28;20484;-59
2023/12/08 06:35:10;;;;;;;62.13;58.53;;;;;;;;;;5025586;28;20041;-59
2023/12/08 06:37:35;;;;;;;57.03;53.63;;;;;;;;;;5023901;28;20021;-60
2023/12/08 06:40:00;;;;;;;56.97;53.75;;;;;;;;;;5026072;28;20192;-59
2023/12/08 06:42:26;;;;;;;58.10;54.28;;;;;;;;;;5027262;28;20444;-59
2023/12/08 06:44:51;;;;;;;59.35;56.25;;;;;;;;;;5026235;28;20121;-59
2023/12/08 06:47:16;;;;;;;62.55;59.03;;;;;;;;;;5026929;28;20500;-60
2023/12/08 06:49:42;;;;;;;59.17;55.97;;;;;;;;;;5026237;28;21865;-62
2023/12/08 06:52:07;;;;;;;59.47;56.28;;;;;;;;;;5027168;28;20026;-60
2023/12/08 06:54:32;;;;;;;56.83;53.63;;;;;;;;;;5030351;28;20045;-59
2023/12/08 06:56:58;;;;;;;55.05;52.13;;;;;;;;;;5031836;28;20470;-59
2023/12/08 06:59:23;;;;;;;57.70;54.55;;;;;;;;;;5025749;28;20028;-59
2023/12/08 07:01:49;;;;;;;54.53;51.72;;;;;;;;;;5026860;28;20108;-59
2023/12/08 07:04:14;;;;;;;58.42;55.33;;;;;;;;;;5024069;28;20095;-60
2023/12/08 07:06:39;;;;;;;54.03;51.13;;;;;;;;;;5027816;28;20040;-59
2023/12/08 07:09:06;;;;;;;53.90;50.95;;;;;;;;;;5026521;28;20048;-60
2023/12/08 07:11:32;;;;;;;57.15;53.97;;;;;;;;;;5026752;28;20033;-60
2023/12/08 07:13:58;;;;;;;52.15;49.22;;;;;;;;;;5027363;28;20052;-60
2023/12/08 07:16:23;;;;;;;50.33;47.67;;;;;;;;;;5025788;28;20034;-60
2023/12/08 07:18:48;;;;;;;50.55;47.78;;;;;;;;;;5026380;28;20040;-59
2023/12/08 07:21:14;;;;;;;55.00;51.90;;;;;;;;;;5026784;28;20051;-60
2023/12/08 07:23:40;;;;;;;55.22;52.25;;;;;;;;;;5024615;28;20029;-60
2023/12/08 07:26:05;;;;;;;53.72;50.63;;;;;;;;;;5028552;28;20579;-59
2023/12/08 07:28:30;;;;;;;52.67;49.67;;;;;;;;;;5026295;28;20038;-59
2023/12/08 07:30:56;;;;;;;53.47;50.60;;;;;;;;;;5028084;28;20033;-60
2023/12/08 07:33:22;;;;;;;53.75;50.55;;;;;;;;;;5025906;28;20033;-59
2023/12/08 07:35:47;;;;;;;51.70;48.88;;;;;;;;;;5027220;28;20658;-60
2023/12/08 07:38:13;;;;;;;51.92;49.15;;;;;;;;;;5031567;28;20635;-60
2023/12/08 07:40:38;;;;;;;50.45;47.80;;;;;;;;;;5028460;28;20037;-59
2023/12/08 07:43:04;;;;;;;51.47;48.78;;;;;;;;;;5027492;28;20514;-60
2023/12/08 07:45:29;;;;;;;51.70;48.90;;;;;;;;;;5026790;28;20166;-59
2023/12/08 07:47:54;;;;;;;52.95;50.05;;;;;;;;;;5031824;28;20048;-60
2023/12/08 07:50:21;;;;;;;49.40;46.53;;;;;;;;;;5030250;28;20179;-59
2023/12/08 07:52:46;;;;;;;48.95;46.20;;;;;;;;;;5028331;28;20033;-59
2023/12/08 07:55:12;;;;;;;48.33;45.50;;;;;;;;;;5032299;28;20032;-59
2023/12/08 07:57:38;;;;;;;46.22;43.70;;;;;;;;;;5028303;28;20028;-60
2023/12/08 08:00:06;;;;;;;49.72;47.03;;;;;;;;;;5027097;28;20136;-60
2023/12/08 08:02:32;;;;;;;47.25;44.70;;;;;;;;;;5028223;28;20085;-60
2023/12/08 08:04:58;;;;;;;53.65;49.17;;;;;;;;;;5024813;28;20037;-60
2023/12/08 08:07:23;;;;;;;51.88;49.05;;;;;;;;;;5029964;28;20041;-60
2023/12/08 08:09:49;;;;;;;54.50;51.50;;;;;;;;;;5028201;28;20059;-60
2023/12/08 08:12:15;;;;;;;53.13;49.92;;;;;;;;;;5029052;28;20025;-60
2023/12/08 08:14:40;;;;;;;52.20;49.45;;;;;;;;;;5026619;28;20048;-60
2023/12/08 08:17:06;;;;;;;54.55;51.63;;;;;;;;;;5026685;28;20041;-61
2023/12/08 08:19:31;;;;;;;59.55;55.83;;;;;;;;;;5023921;28;20033;-60
2023/12/08 08:21:57;;;;;;;60.25;56.95;;;;;;;;;;5025586;28;20112;-61
2023/12/08 08:24:22;;;;;;;60.80;57.08;;;;;;;;;;5030916;28;20075;-60
2023/12/08 08:26:48;;;;;;;59.33;56.13;;;;;;;;;;5027654;28;20028;-61
2023/12/08 08:29:13;;;;;;;60.38;56.88;;;;;;;;;;5024794;28;20037;-61
2023/12/08 08:31:39;;;;;;;59.45;56.10;;;;;;;;;;5030005;28;20449;-60
2023/12/08 08:34:05;;;;;;;55.47;52.50;;;;;;;;;;5027508;28;20053;-61
2023/12/08 08:36:31;;;;;;;58.22;55.20;;;;;;;;;;5026306;28;20064;-61
2023/12/08 08:38:56;;;;;;;58.83;55.60;;;;;;;;;;5026280;28;20060;-61
2023/12/08 08:41:23;;;;;;;60.15;56.53;;;;;;;;;;5027176;28;20451;-60
2023/12/08 08:43:50;;;;;;;61.42;58.15;;;;;;;;;;5023394;28;20067;-61
2023/12/08 08:46:16;;;;;;;58.53;55.35;;;;;;;;;;5026088;28;20105;-61
2023/12/08 08:48:42;;;;;;;63.80;60.33;;;;;;;;;;5024257;28;20076;-62
2023/12/08 08:51:08;;;;;;;59.42;56.15;;;;;;;;;;5026261;28;20065;-61
2023/12/08 08:53:34;;;;;;;59.65;56.38;;;;;;;;;;5024052;28;20044;-61
2023/12/08 08:56:01;;;;;;;61.92;58.53;;;;;;;;;;5026409;28;20049;-61
2023/12/08 08:58:26;;;;;;;64.50;60.97;;;;;;;;;;5027323;28;20025;-61
2023/12/08 09:00:51;;;;;;;60.13;56.60;;;;;;;;;;5027611;28;20108;-62
2023/12/08 09:03:17;;;;;;;59.13;55.97;;;;;;;;;;5026445;28;20063;-61
2023/12/08 09:05:42;;;;;;;60.35;57.20;;;;;;;;;;5025530;28;20061;-61
2023/12/08 09:08:08;;;;;;;59.35;56.22;;;;;;;;;;5027046;28;20123;-61
2023/12/08 09:10:34;;;;;;;62.05;58.28;;;;;;;;;;5025961;28;20054;-61
2023/12/08 09:13:00;;;;;;;60.47;57.22;;;;;;;;;;5025663;28;20118;-62
2023/12/08 09:15:25;;;;;;;62.03;58.70;;;;;;;;;;5022138;28;20048;-61
2023/12/08 09:17:51;;;;;;;59.85;56.63;;;;;;;;;;5026070;28;20108;-61
2023/12/08 09:20:17;;;;;;;59.17;56.10;;;;;;;;;;5023810;28;20041;-61
2023/12/08 09:22:42;;;;;;;63.40;59.67;;;;;;;;;;5025321;28;20482;-62
2023/12/08 09:25:08;;;;;;;60.88;57.60;;;;;;;;;;5025834;28;20037;-61
2023/12/08 09:27:34;;;;;;;58.17;55.13;;;;;;;;;;5022418;28;20037;-61
2023/12/08 09:30:00;;;;;;;61.28;58.05;;;;;;;;;;5025180;28;20044;-61
2023/12/08 09:32:25;;;;;;;59.97;56.60;;;;;;;;;;5024310;28;20034;-62
2023/12/08 09:34:51;;;;;;;57.90;54.80;;;;;;;;;;5023079;28;20065;-61
2023/12/08 09:37:16;;;;;;;60.72;57.45;;;;;;;;;;5024705;28;20060;-61
2023/12/08 09:39:41;;;;;;;61.10;57.78;;;;;;;;;;5027906;28;20476;-61
2023/12/08 09:42:10;;;;;;;58.30;55.17;;;;;;;;;;5023707;28;20025;-62
2023/12/08 09:44:36;;;;;;;60.90;57.35;;;;;;;;;;5022959;28;21151;-61
2023/12/08 09:47:03;;;;;;;58.85;55.67;;;;;;;;;;5023845;28;20068;-61
2023/12/08 09:49:30;;;;;;;58.53;55.10;;;;;;;;;;5020670;28;20478;-61
2023/12/08 09:51:56;;;;;;;63.05;59.72;;;;;;;;;;5024020;28;20123;-61
2023/12/08 09:54:23;;;;;;;60.22;56.97;;;;;;;;;;5010271;28;20083;-60
2023/12/08 09:56:54;;;;;;;59.55;56.42;;;;;;;;;;5028164;28;20391;-60
2023/12/08 09:59:24;;;;;;;61.97;58.40;;;;;;;;;;5023259;28;20125;-60
2023/12/08 10:01:50;;;;;;;63.75;60.28;;;;;;;;;;5025010;28;20045;-60
2023/12/08 10:04:15;;;;;;;62.47;59.13;;;;;;;;;;5022250;28;20095;-60
2023/12/08 10:06:42;;;;;;;62.55;58.45;;;;;;;;;;5026542;28;20780;-60
2023/12/08 10:09:09;;;;;;;61.17;57.90;;;;;;;;;;5029061;28;20041;-60
2023/12/08 10:11:34;;;;;;;62.78;58.88;;;;;;;;;;5027375;28;20120;-60
2023/12/08 10:14:00;;;;;;;60.92;57.58;;;;;;;;;;5032381;28;20100;-60
2023/12/08 10:16:27;;;;;;;62.88;59.40;;;;;;;;;;5027884;28;20033;-60
2023/12/08 10:19:05;;;;;;;60.25;57.00;;;;;;;;;;5027925;28;20406;-59
2023/12/08 10:21:31;;;;;;;65.32;61.58;;;;;;;;;;5029897;28;20033;-60
2023/12/08 10:24:01;;;;;;;64.18;60.50;;;;;;;;;;5029643;28;20040;-59
2023/12/08 10:26:27;;;;;;;61.70;58.38;;;;;;;;;;5031664;28;20057;-59
2023/12/08 10:28:56;;;;;;;60.50;57.17;;;;;;;;;;5030550;28;20121;-59
2023/12/08 10:31:22;;;;;;;62.88;59.45;;;;;;;;;;5028955;28;20052;-60
2023/12/08 10:33:51;;;;;;;63.53;60.00;;;;;;;;;;5031970;28;20029;-60
2023/12/08 10:36:18;;;;;;;63.50;60.03;;;;;;;;;;5034104;28;20587;-60
2023/12/08 10:38:43;;;;;;;63.65;60.33;;;;;;;;;;5030295;28;23994;-59
2023/12/08 10:41:10;;;;;;;61.10;57.75;;;;;;;;;;5030045;28;20569;-61
2023/12/08 10:43:39;;;;;;;62.65;59.20;;;;;;;;;;5028757;28;20056;-59
2023/12/08 10:46:06;;;;;;;56.58;53.50;;;;;;;;;;5029327;28;20068;-59
2023/12/08 10:48:32;;;;;;;56.83;53.75;;;;;;;;;;5028227;28;20063;-59
2023/12/08 10:50:58;;;;;;;60.72;57.53;;;;;;;;;;5031871;28;20047;-59
2023/12/08 10:53:23;;;;;;;58.25;54.97;;;;;;;;;;5027840;28;20109;-59
2023/12/08 10:56:00;;;;;;;59.22;56.17;;;;;;;;;;5027016;28;20039;-59
2023/12/08 10:58:25;;;;;;;57.70;54.63;;;;;;;;;;5028327;28;20063;-59
2023/12/08 11:00:54;;;;;;;56.90;53.80;;;;;;;;;;5028878;28;20041;-59
2023/12/08 11:03:21;;;;;;;60.58;57.38;;;;;;;;;;5025135;28;20037;-59
2023/12/08 11:05:55;;;;;;;57.17;54.05;;;;;;;;;;5027913;28;20041;-59
2023/12/08 11:08:21;;;;;;;56.05;53.13;;;;;;;;;;5029853;28;20029;-59
2023/12/08 11:10:55;;;;;;;57.80;54.35;;;;;;;;;;5027064;28;20034;-59
2023/12/08 11:13:36;;;;;;;56.53;53.47;;;;;;;;;;5028027;28;20037;-59
2023/12/08 11:16:21;;;;;;;56.67;53.63;;;;;;;;;;5029448;28;20045;-59
2023/12/08 11:18:47;;;;;;;58.28;54.97;;;;;;;;;;5027965;28;20049;-59
2023/12/08 11:21:13;;;;;;;59.42;56.20;;;;;;;;;;5024227;28;20439;-59
2023/12/08 11:23:40;;;;;;;59.58;55.80;;;;;;;;;;5030193;28;20103;-59
2023/12/08 11:26:12;;;;;;;58.53;55.33;;;;;;;;;;5031245;28;20409;-59
2023/12/08 11:28:47;;;;;;;58.90;55.75;;;;;;;;;;5024561;28;20820;-59
2023/12/08 11:31:16;;;;;;;59.63;56.20;;;;;;;;;;5030113;28;20395;-59
2023/12/08 11:33:56;;;;;;;57.10;54.03;;;;;;;;;;5027902;28;20037;-59
2023/12/08 11:36:22;;;;;;;55.40;52.30;;;;;;;;;;5028706;28;20430;-60
2023/12/08 11:38:47;;;;;;;55.53;52.45;;;;;;;;;;5026919;28;20080;-59
2023/12/08 11:41:15;;;;;;;59.80;56.58;;;;;;;;;;5027758;28;20033;-59
2023/12/08 11:43:44;;;;;;;62.25;58.50;;;;;;;;;;5026657;28;20045;-59
2023/12/08 11:46:10;;;;;;;59.75;56.45;;;;;;;;;;5022206;28;20522;-59
2023/12/08 11:48:36;;;;;;;62.13;58.72;;;;;;;;;;5022275;28;20187;-60
2023/12/08 11:51:04;;;;;;;63.28;59.80;;;;;;;;;;5026544;28;20030;-59
2023/12/08 11:53:32;;;;;;;64.80;60.85;;;;;;;;;;5027314;28;20041;-59
2023/12/08 11:55:57;;;;;;;62.92;59.10;;;;;;;;;;5027045;28;20033;-59
2023/12/08 11:58:35;;;;;;;65.00;61.50;;;;;;;;;;5025985;28;20255;-60
2023/12/08 12:01:03;;;;;;;62.10;57.60;;;;;;;;;;5027819;28;20037;-59
2023/12/08 12:03:30;;;;;;;65.50;61.95;;;;;;;;;;5023612;28;20064;-60
2023/12/08 12:05:55;;;;;;;65.00;61.42;;;;;;;;;;5026463;28;20052;-60
2023/12/08 12:08:25;;;;;;;65.85;62.10;;;;;;;;;;5024038;28;20041;-60
2023/12/08 12:10:53;;;;;;;71.82;66.25;;;;;;;;;;5028465;28;20388;-60
2023/12/08 12:13:22;;;;;;;67.40;63.47;;;;;;;;;;5026178;28;20037;-59
2023/12/08 12:15:47;;;;;;;67.90;63.97;;;;;;;;;;5026930;28;20051;-60
2023/12/08 12:18:13;;;;;;;67.38;63.67;;;;;;;;;;5025432;28;20044;-60
2023/12/08 12:20:39;;;;;;;67.93;64.22;;;;;;;;;;5026526;28;20363;-61
2023/12/08 12:23:04;;;;;;;68.95;65.18;;;;;;;;;;5027249;28;20036;-60
2023/12/08 12:25:30;;;;;;;74.82;70.47;;;;;;;;;;5030825;28;20117;-60
2023/12/08 12:27:57;;;;;;;67.80;64.15;;;;;;;;;;5024027;28;20108;-60
2023/12/08 12:30:23;;;;;;;70.78;67.07;;;;;;;;;;5025276;28;20033;-60
2023/12/08 12:32:48;;;;;;;70.30;66.57;;;;;;;;;;5026667;28;20117;-60
2023/12/08 12:35:15;;;;;;;63.58;60.25;;;;;;;;;;5023227;28;20033;-60
2023/12/08 12:37:41;;;;;;;70.15;66.55;;;;;;;;;;5026226;28;20026;-60
2023/12/08 12:40:08;;;;;;;67.15;63.53;;;;;;;;;;5026473;28;20029;-60
2023/12/08 12:42:41;;;;;;;71.28;67.43;;;;;;;;;;5027458;28;20104;-60
2023/12/08 12:45:08;;;;;;;68.68;64.45;;;;;;;;;;5024613;28;20029;-60
2023/12/08 12:47:33;;;;;;;62.30;58.85;;;;;;;;;;5025797;28;20034;-60
2023/12/08 12:50:07;;;;;;;58.30;55.33;;;;;;;;;;5024734;28;20122;-60
2023/12/08 12:52:36;;;;;;;62.50;59.03;;;;;;;;;;5024176;28;20049;-60
2023/12/08 12:55:21;;;;;;;61.92;58.53;;;;;;;;;;5026732;28;20036;-59
2023/12/08 12:57:49;;;;;;;61.63;58.30;;;;;;;;;;5024594;28;20120;-60
2023/12/08 13:00:29;;;;;;;65.35;61.78;;;;;;;;;;5026980;28;20614;-60
2023/12/08 13:02:54;;;;;;;64.00;60.45;;;;;;;;;;5025428;28;20087;-59
2023/12/08 13:05:20;;;;;;;70.03;66.05;;;;;;;;;;5022664;28;20040;-60
2023/12/08 13:07:57;;;;;;;67.65;63.42;;;;;;;;;;5024317;28;20065;-59
2023/12/08 13:10:22;;;;;;;63.58;60.15;;;;;;;;;;5029233;28;20541;-59
2023/12/08 13:12:47;;;;;;;67.75;64.20;;;;;;;;;;5024135;28;20037;-59
2023/12/08 13:15:13;;;;;;;61.25;57.70;;;;;;;;;;5022254;28;20041;-60
2023/12/08 13:17:38;;;;;;;64.60;61.05;;;;;;;;;;5026603;28;20044;-59
2023/12/08 13:20:05;;;;;;;64.05;60.47;;;;;;;;;;5022633;28;20061;-59
2023/12/08 13:22:30;;;;;;;69.20;65.03;;;;;;;;;;5026458;28;20037;-59
2023/12/08 13:24:56;;;;;;;65.07;60.25;;;;;;;;;;5025708;28;20084;-59
2023/12/08 13:27:21;;;;;;;70.15;66.05;;;;;;;;;;5026566;28;20485;-59
2023/12/08 13:29:47;;;;;;;67.95;64.13;;;;;;;;;;5024516;28;20037;-59
2023/12/08 13:32:12;;;;;;;65.95;61.92;;;;;;;;;;5021754;28;20029;-59
2023/12/08 13:34:37;;;;;;;66.13;61.78;;;;;;;;;;5019757;28;20501;-59
2023/12/08 13:37:03;;;;;;;68.75;64.28;;;;;;;;;;5023240;28;20037;-59
2023/12/08 13:39:29;;;;;;;66.93;62.97;;;;;;;;;;5024781;28;20041;-59
2023/12/08 13:41:57;;;;;;;71.43;66.57;;;;;;;;;;5025042;28;20040;-59
2023/12/08 13:44:23;;;;;;;72.65;68.28;;;;;;;;;;5028910;28;20033;-60
2023/12/08 13:46:49;;;;;;;72.65;68.55;;;;;;;;;;5027805;28;20044;-59
2023/12/08 13:49:15;;;;;;;75.70;71.55;;;;;;;;;;5029150;28;20037;-60
2023/12/08 13:51:40;;;;;;;70.03;66.22;;;;;;;;;;5030552;28;20060;-60
2023/12/08 13:54:07;;;;;;;69.00;65.18;;;;;;;;;;5029919;28;20067;-59
2023/12/08 13:56:32;;;;;;;71.82;67.47;;;;;;;;;;5029309;28;20036;-59
2023/12/08 13:58:57;;;;;;;75.45;70.85;;;;;;;;;;5030462;28;20043;-59
2023/12/08 14:01:23;;;;;;;74.97;70.40;;;;;;;;;;5032909;28;20694;-59
2023/12/08 14:03:48;;;;;;;74.68;70.40;;;;;;;;;;5027234;28;20180;-59
2023/12/08 14:06:13;;;;;;;80.43;75.45;;;;;;;;;;5023836;28;20044;-59
2023/12/08 14:08:39;;;;;;;84.03;79.28;;;;;;;;;;5029282;28;20060;-60
2023/12/08 14:11:07;;;;;;;81.00;76.57;;;;;;;;;;5029435;28;20584;-59